Axel, Colorado
Current Conditions -  °F | °C
As of 1:53 AM on Saturday 25 Oct 2014 (Local Time) from KEEO Reporting Station
Clear Clear  
Wind Chill:   Ceiling: Unl
Heat Index:   Visibility: 10mi
Dew Point: -2°   Wind: 3mph
Humidity: 73%   Direction: 70°ENE
Pressure: 30.33"   Gusts: NA
Location:  40.0347°N, 107.628°W
Report Text: KEEO 250753Z AUTO 07003KT 10SM CLR 03/M02 A3033 RMK AO2 SLP214 T00281017
Loading
Personal Weather Stations






























Interactive Weather Map
Tropical Storm Tracking
New forecast layout! Learn more

10-Day Weather Forecast

Advertisements
Track Severe Weather on mobile